Time;durP1;ratioP1;P1;durP2;ratioP2;P2;SDS_P1;SDS_P2;PMS_P1;PMS_P2;Temp;Humidity;BMP_temperature;BMP_pressure;BME280_temperature;BME280_humidity;BME280_pressure;Samples;Min_cycle;Max_cycle;Signal;HPM_P1;HPM_P2
2022/06/06 00:01:59;;;;;;;1.77;1.65;;;;;;;17.05;74.73;100857.38;5132986;28;20392;-82
2022/06/06 00:04:31;;;;;;;2.25;1.95;;;;;;;17.17;74.04;100852.38;5092544;28;20110;-83
2022/06/06 00:07:02;;;;;;;3.88;2.63;;;;;;;17.11;74.74;100853.56;5127617;28;20035;-83
2022/06/06 00:09:38;;;;;;;8.90;4.63;;;;;;;17.09;74.73;100847.47;5119154;28;20076;-82
2022/06/06 00:12:12;;;;;;;1.60;1.42;;;;;;;16.99;76.20;100853.25;5112888;28;20062;-80
2022/06/06 00:14:45;;;;;;;;;;;;;;;16.92;75.96;100854.47;5140331;28;20051;-80
2022/06/06 00:17:15;;;;;;;2.90;1.88;;;;;;;17.03;75.02;100856.59;5118089;28;19919;-83
2022/06/06 00:19:48;;;;;;;1.95;1.50;;;;;;;16.92;76.27;100854.47;5140348;28;20034;-83
2022/06/06 00:22:19;;;;;;;2.67;2.00;;;;;;;17.08;74.42;100841.31;5099629;28;20498;-83
2022/06/06 00:24:49;;;;;;;3.17;2.80;;;;;;;17.06;74.92;100850.31;5118698;28;20043;-82
2022/06/06 00:27:20;;;;;;;8.48;4.32;;;;;;;17.12;74.94;100847.31;5128407;28;20027;-83
2022/06/06 00:29:53;;;;;;;3.35;2.63;;;;;;;17.07;75.05;100844.03;5142864;28;20061;-82
2022/06/06 00:35:16;;;;;;;1.88;1.73;;;;;;;17.11;74.32;100846.44;5130851;28;20090;-84
2022/06/06 00:37:47;;;;;;;3.42;3.03;;;;;;;17.20;73.69;100844.25;5125070;28;20599;-82
2022/06/06 00:40:22;;;;;;;4.10;2.50;;;;;;;17.15;74.29;100847.13;5126593;28;20559;-83
2022/06/06 00:42:53;;;;;;;2.97;2.67;;;;;;;17.09;76.04;100847.47;5140250;28;20035;-83
2022/06/06 00:45:31;;;;;;;1.60;1.50;;;;;;;17.11;75.62;100850.91;5149759;28;20094;-85
2022/06/06 00:48:14;;;;;;;3.75;2.50;;;;;;;17.08;76.53;100851.06;5164067;28;20031;-84
2022/06/06 00:50:58;;;;;;;3.50;2.60;;;;;;;17.18;74.35;100844.34;5127234;28;20034;-84
2022/06/06 00:53:31;;;;;;;3.08;2.88;;;;;;;17.20;74.45;100838.94;5145947;28;20042;-83
2022/06/06 00:56:10;;;;;;;4.22;3.83;;;;;;;17.20;74.63;100845.13;5157000;28;20021;-84
2022/06/06 00:58:41;;;;;;;3.72;2.60;;;;;;;17.23;74.61;100849.41;5149735;28;20046;-82
2022/06/06 01:01:12;;;;;;;2.45;2.25;;;;;;;17.13;75.87;100844.56;5116539;29;20039;-82
2022/06/06 01:03:44;;;;;;;3.20;2.65;;;;;;;17.07;76.63;100847.56;5127280;28;20143;-82
2022/06/06 01:06:22;;;;;;;3.22;2.45;;;;;;;16.94;77.26;100844.69;5135241;28;20522;-81
2022/06/06 01:08:58;;;;;;;1.73;1.63;;;;;;;16.89;77.66;100846.69;5118413;28;20096;-81
2022/06/06 01:11:36;;;;;;;4.40;2.42;;;;;;;16.89;76.84;100841.41;5142711;28;20089;-83
2022/06/06 01:14:10;;;;;;;1.88;1.65;;;;;;;16.80;77.84;100841.88;5140318;28;20273;-84
2022/06/06 01:16:44;;;;;;;1.50;1.30;;;;;;;16.79;78.04;100846.28;5149610;28;20018;-84
2022/06/06 01:19:24;;;;;;;1.52;1.42;;;;;;;16.84;77.28;100846.06;5130192;28;20119;-82
2022/06/06 01:22:29;;;;;;;1.83;1.73;;;;;;;16.84;77.23;100844.28;5140901;28;20035;-81
2022/06/06 01:25:26;;;;;;;3.53;1.83;;;;;;;16.75;77.74;100843.88;5130273;28;20062;-83
2022/06/06 01:28:16;;;;;;;1.20;1.13;;;;;;;16.79;77.70;100856.06;5122995;28;20061;-83
2022/06/06 01:30:54;;;;;;;2.35;1.75;;;;;;;16.79;77.38;100840.16;5140642;28;20730;-81
2022/06/06 01:33:24;;;;;;;1.65;1.55;;;;;;;16.67;77.89;100837.19;5125734;28;20049;-81
2022/06/06 01:36:07;;;;;;;2.35;2.17;;;;;;;16.74;77.34;100844.81;5150502;28;20039;-83
2022/06/06 01:38:39;;;;;;;4.22;2.00;;;;;;;16.74;76.99;100836.88;5115883;28;20127;-83
2022/06/06 01:41:14;;;;;;;3.03;2.63;;;;;;;16.67;77.36;100833.69;5107193;28;20035;-81
2022/06/06 01:43:54;;;;;;;1.38;1.27;;;;;;;16.64;77.18;100831.19;5138540;28;20045;-84
2022/06/06 01:46:33;;;;;;;3.65;1.70;;;;;;;16.64;77.44;100833.84;5115828;28;20041;-81
2022/06/06 01:49:09;;;;;;;2.58;1.95;;;;;;;16.57;77.53;100824.50;5127619;28;20045;-80
2022/06/06 01:51:42;;;;;;;1.13;1.10;;;;;;;16.60;77.08;100833.13;5141483;28;20295;-81
2022/06/06 01:54:17;;;;;;;0.90;0.90;;;;;;;16.57;77.17;100820.03;5147261;28;20138;-81
2022/06/06 01:56:47;;;;;;;1.73;1.52;;;;;;;16.70;75.79;100822.06;5122357;28;20043;-83
2022/06/06 01:59:18;;;;;;;1.77;1.05;;;;;;;16.75;75.78;100827.97;5144372;28;20058;-82
2022/06/06 02:01:49;;;;;;;0.77;0.77;;;;;;;16.84;75.24;100820.44;5116600;28;20114;-83
2022/06/06 02:04:28;;;;;;;3.70;2.15;;;;;;;16.76;75.34;100819.09;5148408;28;20339;-81
2022/06/06 02:07:04;;;;;;;2.35;2.13;;;;;;;16.65;76.81;100823.16;5142754;28;20089;-81
2022/06/06 02:09:36;;;;;;;1.23;1.20;;;;;;;16.64;76.62;100821.47;5119054;28;20126;-81
2022/06/06 02:12:10;;;;;;;4.85;2.33;;;;;;;16.52;76.93;100822.06;5129331;28;20454;-80
2022/06/06 02:14:41;;;;;;;2.10;0.85;;;;;;;16.64;76.00;100832.06;5115317;28;20044;-82
2022/06/06 02:17:11;;;;;;;1.73;1.63;;;;;;;16.60;76.37;100830.50;5138065;28;20043;-82
2022/06/06 02:19:43;;;;;;;1.33;1.23;;;;;;;16.70;75.72;100835.31;5127522;28;20058;-83
2022/06/06 02:22:13;;;;;;;2.92;1.58;;;;;;;16.48;76.71;100829.31;5149080;28;20046;-82
2022/06/06 02:24:44;;;;;;;1.63;1.52;;;;;;;16.43;76.89;100827.81;5159804;28;20062;-81
2022/06/06 02:27:15;;;;;;;0.60;0.60;;;;;;;16.40;77.06;100833.28;5152780;28;20030;-81
2022/06/06 02:29:48;;;;;;;1.58;1.48;;;;;;;16.40;76.98;100834.13;5144137;28;20090;-81
2022/06/06 02:32:19;;;;;;;1.48;1.38;;;;;;;16.42;76.99;100829.63;5140627;28;20061;-82
2022/06/06 02:34:55;;;;;;;1.52;1.33;;;;;;;16.58;75.58;100829.69;5151473;28;20035;-82
2022/06/06 02:37:25;;;;;;;1.35;1.25;;;;;;;16.43;76.20;100827.81;5133428;28;20031;-81
2022/06/06 02:39:56;;;;;;;1.50;1.15;;;;;;;16.41;75.76;100834.97;5142221;28;20034;-81
2022/06/06 02:42:26;;;;;;;2.78;1.63;;;;;;;16.45;75.64;100837.41;5118422;28;20105;-81
2022/06/06 02:44:57;;;;;;;1.00;1.00;;;;;;;16.40;76.44;100835.94;5120818;28;20042;-82
2022/06/06 02:47:28;;;;;;;0.85;0.85;;;;;;;16.45;75.75;100836.56;5123159;28;20532;-82
2022/06/06 02:49:58;;;;;;;2.38;1.35;;;;;;;16.45;76.03;100836.56;5144207;28;20038;-83
2022/06/06 02:52:33;;;;;;;2.17;1.50;;;;;;;16.44;75.53;100846.31;5128239;28;20040;-81
2022/06/06 02:55:05;;;;;;;0.82;0.82;;;;;;;16.41;75.59;100835.84;5141711;28;20034;-82
2022/06/06 02:57:46;;;;;;;1.10;1.10;;;;;;;16.39;75.63;100835.06;5132296;28;20042;-83
2022/06/06 03:00:26;;;;;;;1.10;0.75;;;;;;;16.45;75.82;100831.25;5151160;28;20030;-83
2022/06/06 03:02:57;;;;;;;0.55;0.55;;;;;;;16.38;76.24;100824.56;5129845;28;20043;-82
2022/06/06 03:05:41;;;;;;;0.50;0.50;;;;;;;16.45;74.70;100826.81;5164693;28;20055;-84
2022/06/06 03:08:21;;;;;;;1.52;1.15;;;;;;;16.49;74.85;100820.44;5116657;28;20062;-82
2022/06/06 03:11:17;;;;;;;0.85;0.85;;;;;;;16.39;75.32;100810.41;5118441;28;20062;-82
2022/06/06 03:14:26;;;;;;;0.98;0.95;;;;;;;16.40;74.89;100804.16;5132388;28;20062;-83
2022/06/06 03:20:46;;;;;;;1.50;1.13;;;;;;;16.14;76.08;100816.91;5122284;28;20050;-82
2022/06/06 03:23:42;;;;;;;1.23;1.13;;;;;;;16.22;75.16;100809.44;5111060;28;20041;-81
2022/06/06 03:26:17;;;;;;;0.77;0.77;;;;;;;16.12;76.02;100819.59;5140626;28;20034;-82
2022/06/06 03:29:09;;;;;;;1.08;0.98;;;;;;;16.08;76.21;100822.47;5135313;28;20035;-82
2022/06/06 03:31:57;;;;;;;2.53;1.88;;;;;;;16.23;74.97;100821.75;5111373;28;20051;-82
2022/06/06 03:34:47;;;;;;;1.65;1.10;;;;;;;16.12;75.64;100829.34;5116439;28;20123;-81
2022/06/06 03:37:36;;;;;;;1.40;1.30;;;;;;;16.08;75.90;100833.06;5106521;28;20039;-81
2022/06/06 03:40:27;;;;;;;1.02;0.93;;;;;;;16.05;75.63;100834.06;5157470;28;20117;-81
2022/06/06 03:43:27;;;;;;;1.60;1.52;;;;;;;16.13;75.14;100836.34;5116529;28;20381;-83
2022/06/06 03:46:35;;;;;;;0.88;0.88;;;;;;;16.10;75.73;100840.03;5136700;28;20119;-82
2022/06/06 03:49:22;;;;;;;1.95;1.85;;;;;;;15.87;76.61;100841.94;5146766;28;20391;-81
2022/06/06 03:52:17;;;;;;;0.77;0.70;;;;;;;16.04;75.12;100848.22;5142412;28;20047;-82
2022/06/06 03:55:12;;;;;;;1.42;1.33;;;;;;;15.92;76.09;100847.03;5134849;28;20130;-83
2022/06/06 03:57:46;;;;;;;0.60;0.60;;;;;;;15.92;76.12;100848.84;5122277;28;20053;-81
2022/06/06 04:00:17;;;;;;;3.40;2.05;;;;;;;15.94;76.07;100858.41;5132366;28;20038;-81
2022/06/06 04:02:54;;;;;;;0.60;0.60;;;;;;;15.83;75.79;100865.94;5145389;28;20122;-84
2022/06/06 04:05:25;;;;;;;0.68;0.68;;;;;;;15.85;76.03;100869.41;5136103;28;20436;-82
2022/06/06 04:07:59;;;;;;;1.10;1.10;;;;;;;15.84;76.13;100873.00;5121449;28;20042;-82
2022/06/06 04:10:48;;;;;;;1.00;1.00;;;;;;;15.78;76.33;100865.31;5126396;28;20046;-82
2022/06/06 04:13:32;;;;;;;1.10;1.10;;;;;;;15.74;76.40;100873.38;5130555;28;20065;-83
2022/06/06 04:16:09;;;;;;;2.08;1.25;;;;;;;15.74;76.33;100876.03;5135462;28;20054;-83
2022/06/06 04:19:18;;;;;;;0.75;0.75;;;;;;;15.66;76.72;100870.22;5138952;28;20031;-83
2022/06/06 04:22:15;;;;;;;2.78;1.38;;;;;;;15.72;76.16;100872.63;5108599;28;20038;-82
2022/06/06 04:25:04;;;;;;;4.80;2.53;;;;;;;15.70;76.34;100873.63;5090746;28;20030;-83
2022/06/06 04:27:53;;;;;;;1.55;1.45;;;;;;;15.66;75.91;100874.69;5110690;28;20070;-83
2022/06/06 04:30:53;;;;;;;1.85;1.48;;;;;;;15.62;75.67;100876.59;5132037;28;20615;-82
2022/06/06 04:33:49;;;;;;;0.88;0.88;;;;;;;15.64;75.89;100882.69;5110212;29;20078;-83
2022/06/06 04:36:35;;;;;;;0.98;0.95;;;;;;;15.60;75.59;100875.81;5133204;28;20039;-83
2022/06/06 04:39:34;;;;;;;1.55;1.23;;;;;;;15.66;75.07;100880.81;5136332;28;20062;-82
2022/06/06 04:42:16;;;;;;;1.33;0.47;;;;;;;15.68;74.95;100883.41;5116738;28;20122;-85
2022/06/06 04:45:12;;;;;;;0.88;0.88;;;;;;;15.60;74.70;100886.41;5134030;28;20031;-83
2022/06/06 04:47:43;;;;;;;1.67;1.58;;;;;;;15.58;74.44;100877.66;5150599;28;20039;-82
2022/06/06 04:50:17;;;;;;;10.05;1.50;;;;;;;15.51;74.95;100873.59;5126729;28;20069;-83
2022/06/06 04:53:03;;;;;;;0.85;0.85;;;;;;;15.52;75.01;100877.94;5136591;28;20412;-82
2022/06/06 04:55:37;;;;;;;1.60;1.23;;;;;;;15.45;75.26;100871.22;5147127;28;20051;-84
2022/06/06 04:58:12;;;;;;;0.57;0.57;;;;;;;15.51;74.86;100884.16;5159107;28;20030;-84
2022/06/06 05:00:44;;;;;;;2.15;1.90;;;;;;;15.49;74.95;100884.25;5149977;28;20049;-83
2022/06/06 05:03:17;;;;;;;0.73;0.73;;;;;;;15.45;75.22;100889.72;5138219;28;20085;-82
2022/06/06 05:06:03;;;;;;;1.55;1.40;;;;;;;15.44;74.94;100894.19;5114227;28;20090;-82
2022/06/06 05:08:42;;;;;;;0.63;0.63;;;;;;;15.40;74.30;100893.47;5147924;28;20039;-82
2022/06/06 05:11:43;;;;;;;0.70;0.65;;;;;;;15.41;74.47;100895.16;5097043;28;20031;-83
2022/06/06 05:14:23;;;;;;;1.23;1.13;;;;;;;15.39;74.20;100890.84;5126526;28;20039;-83
2022/06/06 05:17:08;;;;;;;2.65;1.25;;;;;;;15.37;74.21;100890.09;5137851;28;20038;-83
2022/06/06 05:19:42;;;;;;;2.05;1.58;;;;;;;15.34;74.06;100896.34;5134996;28;20098;-83
2022/06/06 05:22:37;;;;;;;0.60;0.60;;;;;;;15.32;73.80;100898.22;5129170;28;20154;-83
2022/06/06 05:25:16;;;;;;;1.77;1.00;;;;;;;15.28;73.68;100896.63;5149554;28;20027;-82
2022/06/06 05:28:15;;;;;;;0.98;0.93;;;;;;;15.25;73.54;100896.75;5127491;28;20039;-85
2022/06/06 05:30:56;;;;;;;0.65;0.65;;;;;;;15.28;73.44;100909.84;5123026;28;20063;-83
2022/06/06 05:33:33;;;;;;;6.15;0.57;;;;;;;15.32;73.43;100911.44;5136064;28;20047;-83
2022/06/06 05:36:41;;;;;;;0.93;0.93;;;;;;;15.24;73.75;100905.63;5121342;28;20054;-83
2022/06/06 05:39:31;;;;;;;0.65;0.65;;;;;;;15.32;73.79;100908.81;5142868;28;20046;-85
2022/06/06 05:42:26;;;;;;;1.13;1.02;;;;;;;15.36;73.69;100915.66;5138209;28;20092;-83
2022/06/06 05:45:32;;;;;;;0.57;0.57;;;;;;;15.26;73.39;100909.94;5139991;28;20058;-82
2022/06/06 05:48:02;;;;;;;1.13;1.10;;;;;;;15.33;73.42;100920.22;5126237;28;20023;-83
2022/06/06 05:50:51;;;;;;;1.75;0.57;;;;;;;15.36;73.29;100928.88;5119709;28;20051;-82
2022/06/06 05:53:34;;;;;;;0.73;0.73;;;;;;;15.35;73.21;100929.78;5098981;28;20121;-84
2022/06/06 05:56:36;;;;;;;0.90;0.90;;;;;;;15.36;72.44;100930.66;5099674;28;20419;-83
2022/06/06 05:59:15;;;;;;;0.80;0.77;;;;;;;15.36;73.13;100930.66;5105658;28;20047;-82
2022/06/06 06:02:01;;;;;;;0.52;0.52;;;;;;;15.46;71.72;100925.84;5117128;28;20040;-82
2022/06/06 06:05:20;;;;;;;0.40;0.40;;;;;;;15.53;72.00;100927.28;5136518;28;20058;-82
2022/06/06 06:08:05;;;;;;;0.60;0.60;;;;;;;15.56;71.19;100927.16;5118395;28;20070;-83
2022/06/06 06:10:36;;;;;;;0.40;0.40;;;;;;;15.57;71.54;100934.16;5140206;28;20052;-83
2022/06/06 06:13:31;;;;;;;0.95;0.88;;;;;;;15.48;70.22;100935.41;5136474;28;20050;-83
2022/06/06 06:16:06;;;;;;;23.30;1.17;;;;;;;15.48;70.57;100937.19;5120321;28;20047;-83
2022/06/06 06:18:44;;;;;;;0.93;0.93;;;;;;;15.48;71.10;100942.50;5114166;28;20037;-82
2022/06/06 06:21:22;;;;;;;0.70;0.70;;;;;;;15.46;71.05;100946.97;5142615;28;20047;-84
2022/06/06 06:24:41;;;;;;;0.40;0.40;;;;;;;15.38;70.43;100948.19;5109307;28;20058;-83
2022/06/06 06:27:13;;;;;;;0.50;0.50;;;;;;;15.29;70.17;100945.94;5103351;28;20126;-82
2022/06/06 06:29:44;;;;;;;0.90;0.50;;;;;;;15.47;70.20;100954.00;5139821;28;20050;-84
2022/06/06 06:32:14;;;;;;;0.63;0.63;;;;;;;15.46;69.81;100949.63;5135245;28;20387;-84
2022/06/06 06:34:53;;;;;;;0.52;0.52;;;;;;;15.43;69.96;100947.97;5129265;28;20039;-83
2022/06/06 06:37:44;;;;;;;0.47;0.47;;;;;;;15.52;69.73;100947.59;5119163;28;20039;-84
2022/06/06 06:41:03;;;;;;;0.40;0.40;;;;;;;15.52;69.50;100946.69;5119637;28;20081;-85
2022/06/06 06:43:55;;;;;;;0.43;0.43;;;;;;;15.49;67.23;100941.56;5082119;28;20039;-83
2022/06/06 06:46:37;;;;;;;1.17;1.17;;;;;;;15.55;67.87;100944.78;5139516;28;20141;-82
2022/06/06 06:49:20;;;;;;;0.70;0.70;;;;;;;15.63;67.39;100944.44;5117006;28;20544;-82
2022/06/06 06:52:29;;;;;;;0.40;0.40;;;;;;;15.67;66.28;100943.38;5103290;28;20361;-82
2022/06/06 06:55:24;;;;;;;0.30;0.30;;;;;;;15.63;65.47;100947.09;5134886;28;20039;-82
2022/06/06 06:58:32;;;;;;;0.50;0.50;;;;;;;15.64;64.77;100956.75;5104301;28;20069;-83
2022/06/06 07:01:12;;;;;;;0.30;0.30;;;;;;;15.63;64.34;100960.31;5159631;28;20058;-82
2022/06/06 07:10:37;;;;;;;0.20;0.20;;;;;;;15.77;64.13;100966.78;5144348;28;20047;-82
2022/06/06 07:13:10;;;;;;;0.30;0.30;;;;;;;15.79;63.72;100959.63;5103683;28;20031;-81
2022/06/06 07:15:49;;;;;;;1.17;0.95;;;;;;;15.77;63.01;100966.78;5153744;28;20170;-83
2022/06/06 07:18:25;;;;;;;0.55;0.55;;;;;;;15.81;63.70;100963.91;5128825;28;20027;-81
2022/06/06 07:20:59;;;;;;;0.30;0.30;;;;;;;15.87;63.53;100965.47;5134189;28;20031;-84
2022/06/06 07:23:33;;;;;;;11.90;1.15;;;;;;;15.92;63.40;100954.66;5132661;28;20030;-82
2022/06/06 07:26:06;;;;;;;0.40;0.40;;;;;;;15.92;62.98;100960.81;5122530;28;20053;-83
2022/06/06 07:28:40;;;;;;;0.30;0.30;;;;;;;15.97;63.11;100969.41;5136735;28;20046;-83
2022/06/06 07:31:39;;;;;;;0.30;0.30;;;;;;;15.96;61.83;100966.81;5142320;28;20034;-82
2022/06/06 07:34:29;;;;;;;0.20;0.20;;;;;;;15.93;61.03;100957.25;5130704;28;20558;-81
2022/06/06 07:37:12;;;;;;;0.40;0.40;;;;;;;15.96;61.70;100967.69;5131287;28;20074;-82
2022/06/06 07:40:12;;;;;;;0.20;0.20;;;;;;;16.03;62.40;100957.69;5107980;28;20046;-82
2022/06/06 07:43:20;;;;;;;0.40;0.40;;;;;;;16.09;62.56;100951.22;5135315;28;20050;-82
2022/06/06 07:45:58;;;;;;;0.25;0.25;;;;;;;16.12;62.79;100951.94;5105588;28;20257;-82
2022/06/06 07:48:48;;;;;;;0.50;0.50;;;;;;;16.15;62.98;100950.97;5125938;28;20039;-83
2022/06/06 07:51:56;;;;;;;0.20;0.20;;;;;;;16.15;61.86;100948.31;5130801;28;20519;-83
2022/06/06 07:54:49;;;;;;;0.40;0.40;;;;;;;16.17;61.39;100943.78;5144516;28;20121;-84
2022/06/06 07:57:29;;;;;;;0.30;0.30;;;;;;;16.18;61.52;100942.88;5093751;28;20039;-82
2022/06/06 08:00:08;;;;;;;0.50;0.50;;;;;;;16.31;61.07;100941.38;5136244;28;20039;-82
2022/06/06 08:03:08;;;;;;;3.65;1.00;;;;;;;16.30;61.50;100947.59;5125884;28;20039;-82
2022/06/06 08:06:08;;;;;;;0.20;0.20;;;;;;;16.34;61.00;100941.22;5119826;28;20047;-82
2022/06/06 08:08:59;;;;;;;0.20;0.20;;;;;;;16.32;59.66;100940.41;5120674;28;20126;-82
2022/06/06 08:11:59;;;;;;;0.60;0.60;;;;;;;16.40;60.25;100931.28;5114426;28;20051;-82
2022/06/06 08:14:51;;;;;;;0.40;0.40;;;;;;;16.44;59.46;100940.78;5106022;28;20651;-84
2022/06/06 08:17:42;;;;;;;0.28;0.28;;;;;;;16.45;59.09;100943.34;5103360;28;20516;-84
2022/06/06 08:20:21;;;;;;;1.08;0.70;;;;;;;16.53;60.46;100942.97;5131202;28;20379;-84
2022/06/06 08:22:59;;;;;;;0.40;0.40;;;;;;;16.60;60.05;100944.38;5142570;28;20089;-82
2022/06/06 08:25:35;;;;;;;0.30;0.30;;;;;;;16.58;59.52;100951.53;5135259;28;20044;-84
2022/06/06 08:28:10;;;;;;;0.45;0.45;;;;;;;16.71;59.98;100949.16;5122686;28;20030;-83
2022/06/06 08:30:44;;;;;;;0.20;0.20;;;;;;;16.72;59.72;100956.19;5103559;28;20511;-83
2022/06/06 08:33:15;;;;;;;0.47;0.47;;;;;;;16.84;58.46;100952.06;5113126;28;20079;-82
2022/06/06 08:36:10;;;;;;;0.30;0.30;;;;;;;16.88;58.70;100943.03;5108238;28;20236;-84
2022/06/06 08:38:59;;;;;;;0.30;0.30;;;;;;;16.97;56.39;100942.59;5121692;28;20065;-82
2022/06/06 08:42:03;;;;;;;0.30;0.30;;;;;;;17.01;57.03;100945.97;5136603;28;20042;-83
2022/06/06 08:44:49;;;;;;;0.40;0.40;;;;;;;17.01;55.34;100940.66;5136116;28;20459;-82
2022/06/06 08:48:02;;;;;;;0.20;0.20;;;;;;;17.05;56.02;100930.75;5131883;28;20404;-82
2022/06/06 08:51:01;;;;;;;0.20;0.20;;;;;;;17.14;55.95;100946.19;5106901;28;20039;-81
2022/06/06 08:54:09;;;;;;;0.55;0.55;;;;;;;17.17;54.48;100938.06;5129183;28;20038;-84
2022/06/06 08:57:10;;;;;;;0.20;0.20;;;;;;;17.24;55.73;100935.97;5125806;28;20038;-82
2022/06/06 08:59:53;;;;;;;0.52;0.52;;;;;;;17.35;55.49;100933.63;5121677;28;20035;-83
2022/06/06 09:02:40;;;;;;;0.40;0.35;;;;;;;17.37;55.91;100942.34;5120615;28;20459;-82
2022/06/06 09:05:40;;;;;;;0.20;0.20;;;;;;;17.39;55.14;100948.44;5132564;28;25816;-83
2022/06/06 09:08:32;;;;;;;0.20;0.20;;;;;;;17.39;54.32;100934.31;5108040;28;20562;-82
2022/06/06 09:11:28;;;;;;;0.20;0.20;;;;;;;17.40;54.78;100930.69;5148557;28;20078;-82
2022/06/06 09:14:29;;;;;;;0.20;0.20;;;;;;;17.47;55.27;100940.09;5110420;28;20062;-82
2022/06/06 09:17:24;;;;;;;0.30;0.30;;;;;;;17.45;54.28;100944.59;5146178;28;20412;-81
2022/06/06 09:20:23;;;;;;;0.20;0.20;;;;;;;17.39;53.72;100948.44;5118952;28;20038;-81
2022/06/06 09:23:10;;;;;;;0.20;0.20;;;;;;;17.36;54.31;100943.28;5116399;28;20392;-82
2022/06/06 09:25:59;;;;;;;0.20;0.20;;;;;;;17.48;55.35;100949.72;5121570;28;20042;-82
2022/06/06 09:28:48;;;;;;;0.55;0.55;;;;;;;17.49;54.61;100948.78;5115180;28;20041;-83
2022/06/06 09:31:41;;;;;;;0.20;0.20;;;;;;;17.60;55.64;100951.75;5094401;29;20460;-82
2022/06/06 09:34:49;;;;;;;0.20;0.20;;;;;;;17.70;55.16;100959.22;5110032;29;20042;-82
2022/06/06 09:37:34;;;;;;;0.82;0.82;;;;;;;17.71;54.91;100950.31;5124745;28;20273;-82
2022/06/06 09:40:19;;;;;;;0.20;0.20;;;;;;;17.78;54.90;100949.06;5122648;28;20098;-81
2022/06/06 09:43:26;;;;;;;0.50;0.50;;;;;;;17.86;55.41;100933.56;5124060;28;20059;-80
2022/06/06 09:46:15;;;;;;;33.42;2.08;;;;;;;18.08;55.81;100935.06;5134132;28;20039;-80
2022/06/06 09:49:17;;;;;;;10.05;0.50;;;;;;;18.07;55.39;100942.19;5132713;28;20031;-80
2022/06/06 09:52:03;;;;;;;0.20;0.20;;;;;;;18.13;55.46;100941.00;5140749;28;20043;-80
2022/06/06 10:01:03;;;;;;;0.20;0.20;;;;;;;18.23;53.52;100942.19;5124200;28;20035;-80
2022/06/06 10:04:09;;;;;;;3.53;0.85;;;;;;;18.25;52.81;100940.31;5107298;28;20062;-81
2022/06/06 10:07:17;;;;;;;0.32;0.32;;;;;;;18.42;53.58;100925.22;5143608;28;20054;-80
2022/06/06 10:10:37;;;;;;;0.20;0.20;;;;;;;18.35;53.96;100918.53;5136456;28;20043;-81
2022/06/06 10:13:49;;;;;;;0.30;0.30;;;;;;;18.44;51.82;100915.34;5135886;28;20188;-81
2022/06/06 10:16:35;;;;;;;0.30;0.30;;;;;;;18.35;52.66;100913.22;5102109;29;20138;-81
2022/06/06 10:19:19;;;;;;;0.30;0.30;;;;;;;18.35;52.96;100907.91;5152581;28;20035;-82
2022/06/06 10:22:15;;;;;;;0.30;0.30;;;;;;;18.40;53.36;100900.53;5103962;28;20083;-81
2022/06/06 10:25:04;;;;;;;0.20;0.20;;;;;;;18.43;53.05;100905.69;5139905;28;20045;-81
2022/06/06 10:27:52;;;;;;;0.20;0.20;;;;;;;18.35;50.88;100907.91;5119758;28;20071;-81
2022/06/06 10:30:54;;;;;;;0.20;0.20;;;;;;;18.36;51.75;100910.47;5161228;28;20039;-80
2022/06/06 10:33:50;;;;;;;4.95;1.30;;;;;;;18.39;52.08;100914.75;5134481;28;20046;-81
2022/06/06 10:36:40;;;;;;;0.20;0.20;;;;;;;18.46;52.43;100905.50;5111568;28;20118;-80
2022/06/06 10:39:36;;;;;;;0.20;0.20;;;;;;;18.49;52.70;100899.16;5107940;28;20110;-80
2022/06/06 10:42:20;;;;;;;0.20;0.20;;;;;;;18.50;53.46;100896.41;5102554;28;20046;-80
2022/06/06 10:45:19;;;;;;;0.35;0.35;;;;;;;18.54;53.02;100903.28;5134692;28;20101;-80
2022/06/06 10:48:15;;;;;;;0.20;0.20;;;;;;;18.54;52.11;100905.94;5122964;28;20043;-80
2022/06/06 10:54:21;;;;;;;0.50;0.50;;;;;;;18.58;53.25;100903.06;5138854;28;20045;-81
2022/06/06 10:57:16;;;;;;;0.30;0.30;;;;;;;18.60;52.98;100895.88;5135459;28;20043;-80
2022/06/06 10:59:49;;;;;;;0.20;0.20;;;;;;;18.68;53.74;100891.81;5105189;28;20062;-80
2022/06/06 11:02:23;;;;;;;0.20;0.20;;;;;;;18.71;53.83;100888.16;5143712;28;20035;-81
2022/06/06 11:05:22;;;;;;;0.20;0.20;;;;;;;18.78;53.72;100893.94;5144567;28;20072;-80
2022/06/06 11:08:08;;;;;;;0.30;0.30;;;;;;;18.87;53.79;100878.31;5115966;28;20035;-80
2022/06/06 11:11:16;;;;;;;0.30;0.30;;;;;;;18.92;53.24;100883.41;5138531;28;20050;-80
2022/06/06 11:13:55;;;;;;;0.20;0.20;;;;;;;18.88;52.04;100885.31;5128792;28;20410;-82
2022/06/06 11:16:36;;;;;;;0.38;0.38;;;;;;;19.01;53.04;100897.94;5138040;28;20046;-80
2022/06/06 11:19:13;;;;;;;0.30;0.30;;;;;;;18.91;53.41;100924.19;5136724;28;20027;-81
2022/06/06 11:22:18;;;;;;;0.20;0.20;;;;;;;19.03;53.94;100925.28;5143377;28;20751;-81
2022/06/06 11:25:21;;;;;;;0.22;0.22;;;;;;;19.09;53.31;100913.44;5120655;28;20042;-81
2022/06/06 11:28:23;;;;;;;0.20;0.20;;;;;;;19.14;53.56;100896.22;5131039;28;20059;-82
2022/06/06 11:31:12;;;;;;;0.47;0.47;;;;;;;19.17;54.27;100906.69;5150035;28;20042;-81
2022/06/06 11:34:05;;;;;;;0.30;0.30;;;;;;;19.14;54.70;100900.72;5096844;28;20134;-82
2022/06/06 11:36:51;;;;;;;0.30;0.30;;;;;;;19.11;54.16;100901.75;5130890;28;20076;-82
2022/06/06 11:39:30;;;;;;;0.40;0.40;;;;;;;19.15;53.31;100892.63;5115309;28;20069;-81
2022/06/06 11:42:23;;;;;;;0.45;0.40;;;;;;;19.17;53.34;100888.06;5143929;28;20100;-81
2022/06/06 11:45:09;;;;;;;0.30;0.30;;;;;;;19.24;51.60;100893.00;5128442;28;20031;-82
2022/06/06 11:47:58;;;;;;;0.28;0.28;;;;;;;19.39;52.46;100883.25;5107431;28;20050;-82
2022/06/06 11:50:54;;;;;;;0.47;0.47;;;;;;;19.38;51.71;100885.03;5135170;28;20039;-81
2022/06/06 11:53:33;;;;;;;0.28;0.28;;;;;;;19.32;52.14;100882.75;5123774;28;20724;-82
2022/06/06 11:56:39;;;;;;;0.55;0.50;;;;;;;19.42;53.39;100883.06;5122405;28;20134;-81
2022/06/06 11:59:34;;;;;;;0.30;0.30;;;;;;;19.58;53.40;100877.63;5138208;28;20023;-81
2022/06/06 12:02:20;;;;;;;0.40;0.40;;;;;;;19.64;51.74;100872.78;5141432;28;20046;-81
2022/06/06 12:05:21;;;;;;;0.40;0.40;;;;;;;19.42;49.39;100873.25;5117563;28;20039;-81
2022/06/06 12:08:10;;;;;;;0.20;0.20;;;;;;;19.48;50.67;100880.88;5125657;28;20066;-81
2022/06/06 12:10:53;;;;;;;0.38;0.38;;;;;;;19.52;48.71;100884.19;5122933;28;20062;-82
2022/06/06 12:13:41;;;;;;;0.20;0.20;;;;;;;19.48;47.67;100872.88;5094098;29;20127;-81
2022/06/06 12:16:39;;;;;;;0.20;0.20;;;;;;;19.54;48.20;100873.47;5146831;28;20579;-82
2022/06/06 12:19:22;;;;;;;0.25;0.25;;;;;;;19.57;48.58;100866.16;5104685;28;20035;-82
2022/06/06 12:22:25;;;;;;;0.40;0.40;;;;;;;19.74;49.23;100867.72;5114903;28;20043;-82
2022/06/06 12:25:25;;;;;;;0.20;0.20;;;;;;;19.72;49.59;100861.63;5107267;28;20086;-82
2022/06/06 12:28:37;;;;;;;0.30;0.30;;;;;;;19.76;48.69;100860.50;5123172;28;20289;-83
2022/06/06 12:31:24;;;;;;;0.20;0.20;;;;;;;19.85;49.65;100855.56;5125661;28;20148;-82
2022/06/06 12:34:12;;;;;;;0.30;0.30;;;;;;;19.88;49.68;100863.34;5097659;28;20051;-81
2022/06/06 12:37:08;;;;;;;0.20;0.20;;;;;;;19.99;49.21;100860.88;5116430;28;20046;-82
2022/06/06 12:39:51;;;;;;;0.30;0.30;;;;;;;19.96;45.43;100861.91;5121723;28;20110;-81
2022/06/06 12:42:43;;;;;;;0.20;0.20;;;;;;;20.08;47.30;100854.94;5094167;29;20126;-81
2022/06/06 12:45:29;;;;;;;0.30;0.30;;;;;;;20.18;46.41;100851.69;5097251;28;20043;-81
2022/06/06 12:48:36;;;;;;;0.70;0.65;;;;;;;20.32;46.17;100851.63;5101595;28;20030;-82
2022/06/06 12:51:25;;;;;;;1.00;0.90;;;;;;;20.51;45.27;100845.06;5152952;28;20039;-81
2022/06/06 12:54:14;;;;;;;3.30;0.57;;;;;;;20.59;44.29;100842.75;5125956;28;20073;-82
2022/06/06 12:56:57;;;;;;;0.30;0.30;;;;;;;20.67;43.60;100840.41;5122587;28;20074;-81
2022/06/06 13:00:01;;;;;;;0.38;0.32;;;;;;;20.72;43.44;100843.59;5135347;28;20066;-81
2022/06/06 13:02:47;;;;;;;0.20;0.20;;;;;;;20.74;44.19;100839.06;5149672;28;20069;-82
2022/06/06 13:05:29;;;;;;;0.40;0.40;;;;;;;20.95;43.00;100841.19;5118307;28;20047;-79
2022/06/06 13:08:15;;;;;;;0.37;0.37;;;;;;;21.10;41.95;100835.78;5103299;28;20078;-79
2022/06/06 13:11:08;;;;;;;0.45;0.45;;;;;;;21.01;40.55;100840.78;5121406;28;20567;-79
2022/06/06 13:14:03;;;;;;;3.13;0.90;;;;;;;21.12;41.12;100836.50;5137991;28;20046;-79